METAR v bližini

 

LJLJ - Ljubljana/Brnik, Slovenia
Oddaljenost od postaje: W 41km
Podatki zajeti: 24/05/2022 10:30
Pretežno oblačno
Pretežno oblačno
 Veter iz smeri SW
Veter: SW 11 km/h
Temperatura: 23°C
Rosišče: 14°C
Vlažnost: 57%
Tlak: 1008 hPa
Oblačnost: Pretežno oblačno
Vidljivost: 10 km
Podrobnosti o oblakih: Rahlo oblačno 914 m
Pretežno oblačno 1372 m
2022/05/24 08:30 LJLJ 240830Z 23006KT 180V280 9999 FEW030 BKN045 23/14 Q1008 NOSIG
LJMB - Maribor, Slovenia
Oddaljenost od postaje: NE 63km
Podatki zajeti: 24/05/2022 10:30
Delno oblačno
Delno oblačno
 Veter iz smeri SSE
Veter: SSE 7 km/h
Temperatura: 23°C
Rosišče: 16°C
Vlažnost: 65%
Tlak: 1008 hPa
Oblačnost: Delno oblačno
Vidljivost: 10 km
Podrobnosti o oblakih: Rahlo oblačno 853 m
Delno oblačno 5791 m
2022/05/24 08:30 LJMB 240830Z 16004KT 070V210 9999 FEW028 SCT190 23/16 Q1008
 
LJPZ - Portoroz, Slovenia
Oddaljenost od postaje: SW 130km
Podatki zajeti: 24/05/2022 10:30
Jasno
Jasno
 Veter iz smeri SE
Veter: SE 15 km/h
Temperatura: 26°C
Rosišče: 16°C
Vlažnost: 54%
Tlak: 1007 hPa
Stanje: Jasno
Vidljivost: večja od 10 km
2022/05/24 08:30 LJPZ 240830Z 14008KT 080V200 CAVOK 26/16 Q1007
LJCE - Cerklje, Slovenia
Oddaljenost od postaje: ESE 49km
Podatki zajeti: 24/05/2022 10:30
Rahlo oblačno
Rahlo oblačno
 Veter iz smeri spremenljiv
Veter: spremenljiv 4 km/h
Temperatura: 26°C
Rosišče: 15°C
Vlažnost: 51%
Tlak: 1007 hPa
Oblačnost: Rahlo oblačno
Vidljivost: 10 km
Podrobnosti o oblakih: Rahlo oblačno 1219 m
2022/05/24 08:30 LJCE 240830Z VRB02KT 9999 FEW040 26/15 Q1007 RMK BLU
 
LDZA - Zagreb/Pleso, Croatia
Oddaljenost od postaje: ESE 96km
Podatki zajeti: 24/05/2022 10:30
Rahlo oblačno
Rahlo oblačno
 Veter iz smeri NNE
Veter: NNE 6 km/h
Temperatura: 24°C
Rosišče: 16°C
Vlažnost: 61%
Tlak: 1008 hPa
Oblačnost: Rahlo oblačno
Vidljivost: 10 km
Podrobnosti o oblakih: Rahlo oblačno 1463 m
2022/05/24 08:30 LDZA 240830Z 03003KT 320V100 9999 FEW048 24/16 Q1008 BECMG 24006KT
LDRI - Rijeka/Omisalj, Croatia
Oddaljenost od postaje: SSW 109km
Podatki zajeti: 24/05/2022 10:30
Rahlo oblačno
Rahlo oblačno
 Veter iz smeri SW
Veter: SW 9 km/h
Temperatura: 25°C
Rosišče: 16°C
Vlažnost: 57%
Tlak: 1009 hPa
Oblačnost: Rahlo oblačno
Vidljivost: 10 km
Podrobnosti o oblakih: Rahlo oblačno 1219 m
2022/05/24 08:30 LDRI 240830Z 23005KT 170V320 9999 FEW040 25/16 Q1009
 
LDPL - Pula, Croatia
Oddaljenost od postaje: SSW 164km
Podatki zajeti: 24/05/2022 10:30
Rahlo oblačno
Rahlo oblačno
 Veter iz smeri SSE
Veter: SSE 19 km/h
Temperatura: 23°C
Rosišče: 17°C
Vlažnost: 69%
Tlak: 1008 hPa
Oblačnost: Rahlo oblačno
Vidljivost: 10 km
Podrobnosti o oblakih: Rahlo oblačno 701 m
2022/05/24 08:30 LDPL 240830Z 15010KT 110V190 9999 FEW023 23/17 Q1008 NOSIG
LOWK - Klagenfurt(Civ/M, Austria
Oddaljenost od postaje: NW 76km
Podatki zajeti: 24/05/2022 10:20
Rahlo oblačno
Rahlo oblačno
 Veter iz smeri spremenljiv
Veter: spremenljiv 4 km/h
Temperatura: 20°C
Rosišče: 13°C
Vlažnost: 64%
Tlak: 1009 hPa
Oblačnost: Rahlo oblačno
Vidljivost: 10 km
Podrobnosti o oblakih: Rahlo oblačno 914 m
2022/05/24 08:20 LOWK 240820Z AUTO VRB02KT 9999 FEW030 20/13 Q1009 NOSIG
 
LOWG - Graz (mil/Civ), Austria
Oddaljenost od postaje: NNE 100km
Podatki zajeti: 24/05/2022 10:20
Rahlo oblačno
Rahlo oblačno
 Veter iz smeri E
Veter: E 6 km/h
Temperatura: 21°C
Rosišče: 15°C
Vlažnost: 69%
Tlak: 1008 hPa
Oblačnost: Rahlo oblačno
Vidljivost: 10 km
Podrobnosti o oblakih: Rahlo oblačno 610 m
2022/05/24 08:20 LOWG 240820Z 10003KT 050V160 9999 FEW020 21/15 Q1008 NOSIG
LOAN - Wr.neustadt East, Austria
Oddaljenost od postaje: NNE 212km
Podatki zajeti: 24/05/2022 10:00
Delno oblačno
Delno oblačno
 Veter iz smeri ENE
Veter: ENE 7 km/h
Oblačnost: Delno oblačno
Vidljivost: 10 km
Podrobnosti o oblakih: Delno oblačno 1524 m
2022/05/24 08:00 LOAN 240800Z 07004KT 9999 SCT050
 
LIPQ - Ronchi Legionari, Italy
Oddaljenost od postaje: SW 35km
Podatki zajeti: 24/05/2022 10:20
Rahlo oblačno
Rahlo oblačno
 Veter iz smeri SE
Veter: SE 9 km/h
Temperatura: 25°C
Rosišče: 16°C
Vlažnost: 57%
Tlak: 1007 hPa
Oblačnost: Rahlo oblačno
Vidljivost: 10 km
Podrobnosti o oblakih: Rahlo oblačno 1097 m
2022/05/24 08:20 LIPQ 240820Z AUTO 14005KT 100V270 9999 FEW036/// 25/16 Q1007
LIVT - Trieste, Italy
Oddaljenost od postaje: WSW 109km
Podatki zajeti: 24/05/2022 09:55
Jasno
Jasno
 Veter iz smeri NNE
Veter: NNE 4 km/h
Temperatura: 25°C
Rosišče: 19°C
Vlažnost: 69%
Tlak: 1006 hPa
Stanje: Jasno
Vidljivost: večja od 10 km
2022/05/24 07:55 LIVT 240755Z 02002KT CAVOK 25/19 Q1006
 
LIVO - Tarvisio, Italy
Oddaljenost od postaje: NNW 49km
Podatki zajeti: 24/05/2022 09:55
Delno oblačno
Delno oblačno
 Veter iz smeri W
Veter: W 7 km/h
Temperatura: 20°C
Rosišče: 14°C
Vlažnost: 69%
Tlak: 1008 hPa
Oblačnost: Delno oblačno
Vidljivost: 10 km
Podrobnosti o oblakih: Delno oblačno 853 m
2022/05/24 07:55 LIVO 240755Z 28004KT 9999 SCT028 20/14 Q1008
LIPZ - Venezia/Tessera, Italy
Oddaljenost od postaje: WSW 217km
Podatki zajeti: 24/05/2022 10:20
Delno oblačno
Delno oblačno
 Veter iz smeri E
Veter: E 19 km/h
Temperatura: 23°C
Rosišče: 16°C
Vlažnost: 65%
Tlak: 1006 hPa
Oblačnost: Delno oblačno
Vidljivost: 10 km
Podrobnosti o oblakih: Delno oblačno 457 m
2022/05/24 08:20 LIPZ 240820Z 09010KT 9999 SCT015 23/16 Q1006 NOSIG
 
LHSM - Balaton, Hungary
Oddaljenost od postaje: ENE 177km
Podatki zajeti: 24/05/2022 10:15
Jasno
Jasno
 Veter iz smeri E
Veter: E 13 km/h
Temperatura: 19°C
Rosišče: 15°C
Vlažnost: 78%
Tlak: 1009 hPa
Stanje: Jasno
Vidljivost: večja od 10 km
2022/05/24 08:15 LHSM 240815Z AUTO 08007KT 030V110 CAVOK 19/15 Q1009 NOSIG